Time;durP1;ratioP1;P1;durP2;ratioP2;P2;SDS_P1;SDS_P2;PMS_P1;PMS_P2;Temp;Humidity;BMP_temperature;BMP_pressure;BME280_temperature;BME280_humidity;BME280_pressure;Samples;Min_cycle;Max_cycle;Signal;HPM_P1;HPM_P2
2023/12/08 00:02:21;;;;;;;32.13;20.13;;;2.60;99.90;;;;;;5067531;28;20242;-65
2023/12/08 00:04:48;;;;;;;34.23;19.37;;;2.60;99.90;;;;;;5067532;28;20298;-65
2023/12/08 00:07:15;;;;;;;32.67;19.47;;;2.60;99.90;;;;;;5067474;28;20305;-65
2023/12/08 00:09:43;;;;;;;29.63;18.37;;;2.60;99.90;;;;;;5061214;28;20649;-66
2023/12/08 00:12:10;;;;;;;27.63;18.33;;;2.60;99.90;;;;;;5067553;28;20217;-65
2023/12/08 00:14:37;;;;;;;30.00;18.50;;;2.60;99.90;;;;;;5067541;28;20257;-65
2023/12/08 00:17:05;;;;;;;28.80;18.70;;;2.60;99.90;;;;;;5067373;28;20242;-65
2023/12/08 00:19:32;;;;;;;28.53;17.17;;;2.60;99.90;;;;;;5067480;28;20203;-65
2023/12/08 00:21:59;;;;;;;27.53;17.60;;;2.60;99.90;;;;;;5067006;28;20301;-65
2023/12/08 00:24:26;;;;;;;29.10;17.67;;;2.60;99.90;;;;;;5065487;28;20314;-66
2023/12/08 00:26:54;;;;;;;26.70;16.70;;;2.50;99.90;;;;;;5066715;28;20257;-65
2023/12/08 00:29:21;;;;;;;27.73;17.03;;;2.40;99.90;;;;;;5067240;28;20200;-65
2023/12/08 00:31:49;;;;;;;25.83;16.07;;;2.40;99.90;;;;;;5066442;28;20288;-65
2023/12/08 00:34:16;;;;;;;24.57;16.07;;;2.40;99.90;;;;;;5066447;28;20213;-66
2023/12/08 00:36:43;;;;;;;26.97;17.23;;;2.40;99.90;;;;;;5067040;28;20234;-65
2023/12/08 00:39:10;;;;;;;26.03;16.13;;;2.40;99.90;;;;;;5067052;28;20261;-67
2023/12/08 00:41:37;;;;;;;25.63;16.57;;;2.40;99.90;;;;;;5062536;28;20247;-66
2023/12/08 00:44:05;;;;;;;24.20;16.67;;;2.40;99.90;;;;;;5046055;28;20331;-66
2023/12/08 00:46:32;;;;;;;24.03;16.67;;;2.40;99.90;;;;;;5049570;28;20204;-66
2023/12/08 00:48:59;;;;;;;25.03;16.23;;;2.50;99.90;;;;;;5067077;28;20322;-66
2023/12/08 00:51:37;;;;;;;25.50;16.67;;;2.40;99.90;;;;;;5067103;28;20566;-65
2023/12/08 00:54:04;;;;;;;27.90;17.70;;;2.40;99.90;;;;;;5067021;28;20199;-65
2023/12/08 00:56:31;;;;;;;26.87;17.47;;;2.50;99.90;;;;;;5067102;28;20239;-65
2023/12/08 00:58:57;;;;;;;26.53;17.07;;;2.50;99.90;;;;;;5066862;28;20250;-65
2023/12/08 01:01:26;;;;;;;25.73;17.20;;;2.50;99.90;;;;;;5066940;28;20195;-65
2023/12/08 01:06:31;;;;;;;27.90;17.53;;;2.50;99.90;;;;;;5691731;22;20786;-66
2023/12/08 01:08:58;;;;;;;27.97;18.37;;;2.50;99.90;;;;;;5032990;28;20317;-66
2023/12/08 01:11:25;;;;;;;30.37;18.07;;;2.50;99.90;;;;;;5041063;28;20228;-66
2023/12/08 01:13:52;;;;;;;28.93;17.63;;;2.50;99.90;;;;;;5034656;28;20743;-66
2023/12/08 01:16:19;;;;;;;28.07;18.10;;;2.50;99.90;;;;;;5045694;28;20760;-66
2023/12/08 01:18:47;;;;;;;28.67;18.73;;;2.50;99.90;;;;;;5046589;28;20204;-67
2023/12/08 01:21:14;;;;;;;29.30;17.60;;;2.50;99.90;;;;;;5046275;28;20242;-67
2023/12/08 01:23:41;;;;;;;29.77;19.13;;;2.50;99.90;;;;;;5046496;28;20235;-66
2023/12/08 01:26:09;;;;;;;28.60;18.33;;;2.50;99.90;;;;;;5046428;28;20242;-66
2023/12/08 01:28:36;;;;;;;28.37;17.97;;;2.50;99.90;;;;;;5046342;28;20615;-66
2023/12/08 01:31:03;;;;;;;28.87;18.30;;;2.50;99.90;;;;;;5044422;28;20204;-66
2023/12/08 01:33:30;;;;;;;30.07;19.03;;;2.50;99.90;;;;;;5042281;28;20223;-66
2023/12/08 01:35:58;;;;;;;31.50;18.57;;;2.50;99.90;;;;;;5033559;28;20291;-66
2023/12/08 01:38:25;;;;;;;30.93;19.67;;;2.50;99.90;;;;;;5026562;28;20216;-66
2023/12/08 01:40:52;;;;;;;31.43;19.07;;;2.50;99.90;;;;;;5044923;28;20212;-66
2023/12/08 01:43:19;;;;;;;30.60;19.33;;;2.60;99.90;;;;;;5046034;28;20200;-66
2023/12/08 01:45:46;;;;;;;30.13;19.70;;;2.50;99.90;;;;;;5047693;28;20298;-67
2023/12/08 01:48:13;;;;;;;31.70;19.70;;;2.50;99.90;;;;;;5050286;28;20235;-66
2023/12/08 01:50:40;;;;;;;32.77;19.33;;;2.50;99.90;;;;;;5041218;28;20732;-67
2023/12/08 01:53:09;;;;;;;30.10;19.17;;;2.50;99.90;;;;;;5030346;28;20576;-67
2023/12/08 01:55:36;;;;;;;31.47;19.63;;;2.50;99.90;;;;;;5029981;28;20675;-66
2023/12/08 01:58:03;;;;;;;31.77;19.70;;;2.50;99.90;;;;;;5029842;28;20239;-67
2023/12/08 02:00:30;;;;;;;31.13;18.57;;;2.60;99.90;;;;;;5030370;28;21098;-67
2023/12/08 02:02:57;;;;;;;30.83;19.70;;;2.60;99.90;;;;;;5030214;28;20212;-66
2023/12/08 02:05:26;;;;;;;27.87;18.50;;;2.60;99.90;;;;;;5029978;28;20233;-67
2023/12/08 02:07:55;;;;;;;30.67;19.83;;;2.60;99.90;;;;;;5029711;28;20394;-67
2023/12/08 02:10:23;;;;;;;29.93;19.40;;;2.60;99.90;;;;;;5036015;28;20299;-67
2023/12/08 02:12:50;;;;;;;29.87;18.67;;;2.60;99.90;;;;;;5049643;28;20207;-66
2023/12/08 02:15:17;;;;;;;29.53;19.30;;;2.60;99.90;;;;;;5050011;28;20291;-66
2023/12/08 02:17:45;;;;;;;29.87;18.17;;;2.60;99.90;;;;;;5049704;28;20364;-66
2023/12/08 02:20:13;;;;;;;27.30;17.87;;;2.60;99.90;;;;;;5049256;28;20210;-67
2023/12/08 02:22:40;;;;;;;30.97;19.03;;;2.60;99.90;;;;;;5049772;28;20232;-67
2023/12/08 02:25:09;;;;;;;28.60;17.40;;;2.60;99.90;;;;;;5047869;28;20294;-67
2023/12/08 02:27:36;;;;;;;31.73;18.07;;;2.60;99.90;;;;;;5029763;28;20291;-67
2023/12/08 02:30:03;;;;;;;28.03;18.10;;;2.60;99.90;;;;;;5029704;28;20208;-67
2023/12/08 02:32:36;;;;;;;26.00;17.53;;;2.50;99.90;;;;;;5029445;28;20208;-67
2023/12/08 02:35:07;;;;;;;28.27;17.27;;;2.60;99.90;;;;;;5032050;28;20198;-67
2023/12/08 02:37:37;;;;;;;30.90;19.03;;;2.60;99.90;;;;;;5049420;28;20310;-67
2023/12/08 02:40:06;;;;;;;28.37;17.57;;;2.60;99.90;;;;;;5037299;28;20308;-67
2023/12/08 02:42:35;;;;;;;30.10;18.20;;;2.60;99.90;;;;;;5031134;28;20223;-67
2023/12/08 02:45:02;;;;;;;27.07;17.57;;;2.60;99.90;;;;;;5049345;28;20306;-66
2023/12/08 02:47:29;;;;;;;28.27;19.00;;;2.60;99.90;;;;;;5048897;28;20222;-66
2023/12/08 02:49:56;;;;;;;30.00;18.07;;;2.60;99.90;;;;;;5048892;28;20208;-67
2023/12/08 02:52:22;;;;;;;30.63;18.53;;;2.60;99.90;;;;;;5049074;28;20215;-67
2023/12/08 02:54:49;;;;;;;29.77;17.60;;;2.60;99.90;;;;;;5038084;28;20197;-67
2023/12/08 02:57:16;;;;;;;29.93;17.83;;;2.60;99.90;;;;;;5028558;28;20315;-67
2023/12/08 02:59:44;;;;;;;28.90;18.00;;;2.60;99.90;;;;;;5029366;28;20291;-67
2023/12/08 03:02:11;;;;;;;32.20;18.07;;;2.60;99.90;;;;;;5029187;28;20316;-67
2023/12/08 03:04:38;;;;;;;29.93;18.43;;;2.60;99.90;;;;;;5028785;28;20739;-67
2023/12/08 03:07:05;;;;;;;31.13;18.57;;;2.60;99.90;;;;;;5028480;28;20896;-67
2023/12/08 03:09:32;;;;;;;30.20;18.90;;;2.60;99.90;;;;;;5028604;28;20640;-66
2023/12/08 03:11:59;;;;;;;30.77;18.47;;;2.60;99.90;;;;;;5028610;28;20209;-66
2023/12/08 03:14:25;;;;;;;31.77;18.83;;;2.60;99.90;;;;;;5028455;28;20303;-66
2023/12/08 03:16:54;;;;;;;30.07;17.53;;;2.60;99.90;;;;;;5028203;28;20291;-66
2023/12/08 03:19:21;;;;;;;29.33;18.63;;;2.60;99.90;;;;;;5028604;28;20208;-66
2023/12/08 03:21:48;;;;;;;28.40;17.60;;;2.60;99.90;;;;;;5028379;28;20291;-66
2023/12/08 03:24:14;;;;;;;28.97;17.73;;;2.60;99.90;;;;;;5028408;28;20255;-66
2023/12/08 03:26:41;;;;;;;29.67;17.97;;;2.60;99.90;;;;;;5028577;28;20296;-66
2023/12/08 03:29:08;;;;;;;27.60;17.57;;;2.60;99.90;;;;;;5028655;28;20218;-66
2023/12/08 03:31:35;;;;;;;33.40;19.03;;;2.60;99.90;;;;;;5032355;28;20783;-66
2023/12/08 03:34:03;;;;;;;30.73;19.07;;;2.60;99.90;;;;;;5047876;28;20656;-66
2023/12/08 03:36:30;;;;;;;28.40;17.23;;;2.60;99.90;;;;;;5048161;28;20291;-66
2023/12/08 03:38:57;;;;;;;29.73;18.33;;;2.60;99.90;;;;;;5047721;28;20319;-65
2023/12/08 03:41:24;;;;;;;27.10;17.17;;;2.60;99.90;;;;;;5033969;28;20240;-65
2023/12/08 03:43:51;;;;;;;30.67;17.63;;;2.60;99.90;;;;;;5040298;28;20287;-65
2023/12/08 03:46:18;;;;;;;28.83;18.07;;;2.70;99.90;;;;;;5047990;28;20358;-65
2023/12/08 03:48:45;;;;;;;28.00;18.10;;;2.60;99.90;;;;;;5047968;28;20287;-66
2023/12/08 03:51:13;;;;;;;29.43;17.93;;;2.70;99.90;;;;;;5047836;28;20255;-65
2023/12/08 03:53:40;;;;;;;29.80;18.17;;;2.70;99.90;;;;;;5046668;28;20290;-66
2023/12/08 03:56:08;;;;;;;27.60;18.33;;;2.70;99.90;;;;;;5043659;28;20300;-65
2023/12/08 03:58:35;;;;;;;29.00;18.77;;;2.60;99.90;;;;;;5047762;28;20667;-66
2023/12/08 04:01:02;;;;;;;30.20;18.77;;;2.70;99.90;;;;;;5039400;28;20299;-67
2023/12/08 04:03:28;;;;;;;31.90;19.13;;;2.70;99.90;;;;;;5036755;28;20282;-67
2023/12/08 04:05:55;;;;;;;27.37;16.90;;;2.70;99.90;;;;;;5039193;28;20636;-67
2023/12/08 04:08:24;;;;;;;27.07;17.53;;;2.70;99.90;;;;;;5028784;28;20292;-67
2023/12/08 04:10:50;;;;;;;25.93;16.93;;;2.70;99.90;;;;;;5037091;28;20212;-67
2023/12/08 04:13:17;;;;;;;26.97;17.43;;;2.70;99.90;;;;;;5047631;28;20234;-67
2023/12/08 04:15:44;;;;;;;28.93;18.33;;;2.70;99.90;;;;;;5047619;28;20362;-67
2023/12/08 04:18:11;;;;;;;31.43;18.77;;;2.70;99.90;;;;;;5047011;28;20662;-67
2023/12/08 04:20:38;;;;;;;28.57;19.03;;;2.70;99.90;;;;;;5047197;28;20300;-67
2023/12/08 04:23:05;;;;;;;30.87;19.03;;;2.70;99.90;;;;;;5047400;28;20740;-67
2023/12/08 04:25:34;;;;;;;30.10;17.57;;;2.70;99.90;;;;;;5036346;28;20212;-67
2023/12/08 04:28:01;;;;;;;26.27;17.13;;;2.70;99.90;;;;;;5026926;28;20748;-67
2023/12/08 04:30:28;;;;;;;27.93;17.47;;;2.70;99.90;;;;;;5027699;28;20543;-67
2023/12/08 04:32:55;;;;;;;29.37;17.67;;;2.70;99.90;;;;;;5026665;28;20685;-67
2023/12/08 04:35:22;;;;;;;27.00;18.27;;;2.70;99.90;;;;;;5027232;28;20256;-67
2023/12/08 04:37:50;;;;;;;28.60;18.20;;;2.70;99.90;;;;;;5026909;28;20687;-67
2023/12/08 04:40:17;;;;;;;29.80;17.47;;;2.70;99.90;;;;;;5032316;28;20596;-67
2023/12/08 04:42:45;;;;;;;27.07;17.43;;;2.60;99.90;;;;;;5046666;28;20200;-67
2023/12/08 04:45:14;;;;;;;29.67;17.47;;;2.60;99.90;;;;;;5046727;28;20295;-67
2023/12/08 04:47:40;;;;;;;24.37;16.43;;;2.60;99.90;;;;;;5047070;28;20238;-67
2023/12/08 04:50:08;;;;;;;26.10;16.93;;;2.60;99.90;;;;;;5046885;28;20238;-67
2023/12/08 04:52:35;;;;;;;24.60;16.27;;;2.60;99.90;;;;;;5046748;28;20287;-67
2023/12/08 04:55:04;;;;;;;24.53;16.60;;;2.60;99.90;;;;;;5046840;28;20219;-67
2023/12/08 04:57:31;;;;;;;28.47;16.70;;;2.60;99.90;;;;;;5047020;28;20230;-67
2023/12/08 04:59:59;;;;;;;24.93;17.13;;;2.60;99.90;;;;;;5046590;28;20239;-67
2023/12/08 05:02:26;;;;;;;27.13;16.40;;;2.60;99.90;;;;;;5046988;28;20219;-66
2023/12/08 05:04:53;;;;;;;23.07;15.33;;;2.60;99.90;;;;;;5046707;28;20208;-67
2023/12/08 05:07:20;;;;;;;26.57;16.37;;;2.60;99.90;;;;;;5046278;28;20319;-66
2023/12/08 05:09:47;;;;;;;23.27;15.33;;;2.60;99.90;;;;;;5046067;28;20302;-66
2023/12/08 05:12:14;;;;;;;23.70;16.33;;;2.60;99.90;;;;;;5026899;28;20655;-66
2023/12/08 05:14:41;;;;;;;25.37;16.40;;;2.60;99.90;;;;;;5045896;28;20200;-66
2023/12/08 05:17:09;;;;;;;26.03;16.33;;;2.60;99.90;;;;;;5047099;28;20264;-66
2023/12/08 05:19:36;;;;;;;25.43;15.53;;;2.60;99.90;;;;;;5046376;28;20290;-66
2023/12/08 05:22:03;;;;;;;25.57;15.57;;;2.50;99.90;;;;;;5045966;28;20308;-66
2023/12/08 05:24:30;;;;;;;22.03;14.83;;;2.50;99.90;;;;;;5046464;28;20670;-66
2023/12/08 05:26:57;;;;;;;24.80;16.70;;;2.50;99.90;;;;;;5046740;28;20232;-66
2023/12/08 05:29:24;;;;;;;23.03;15.73;;;2.50;99.90;;;;;;5029248;28;20201;-67
2023/12/08 05:31:50;;;;;;;23.93;15.70;;;2.50;99.90;;;;;;5032663;28;20299;-67
2023/12/08 05:34:19;;;;;;;25.30;16.17;;;2.60;99.90;;;;;;5046742;28;20216;-67
2023/12/08 05:36:46;;;;;;;23.50;15.63;;;2.50;99.90;;;;;;5046674;28;20572;-67
2023/12/08 05:39:14;;;;;;;25.53;16.27;;;2.50;99.90;;;;;;5044567;28;20286;-67
2023/12/08 05:41:41;;;;;;;23.47;15.97;;;2.50;99.90;;;;;;5046478;28;20227;-67
2023/12/08 05:44:08;;;;;;;25.17;17.00;;;2.50;99.90;;;;;;5045765;28;20210;-67
2023/12/08 05:46:35;;;;;;;24.77;16.70;;;2.50;99.90;;;;;;5046163;28;20302;-67
2023/12/08 05:49:02;;;;;;;22.10;16.13;;;2.50;99.90;;;;;;5046677;28;20705;-67
2023/12/08 05:51:30;;;;;;;24.57;16.37;;;2.50;99.90;;;;;;5046220;28;20208;-67
2023/12/08 05:53:57;;;;;;;23.70;16.30;;;2.50;99.90;;;;;;5046122;28;20761;-67
2023/12/08 05:56:24;;;;;;;25.27;16.57;;;2.40;99.90;;;;;;5046080;28;20666;-67
2023/12/08 05:58:51;;;;;;;24.70;17.10;;;2.40;99.90;;;;;;5046146;28;20232;-67
2023/12/08 06:01:19;;;;;;;28.10;17.70;;;2.40;99.90;;;;;;5037035;28;20259;-67
2023/12/08 06:03:46;;;;;;;21.70;15.23;;;2.40;99.90;;;;;;5026205;28;20643;-67
2023/12/08 06:06:13;;;;;;;25.73;16.67;;;2.40;99.90;;;;;;5025637;28;20782;-67
2023/12/08 06:08:41;;;;;;;24.13;15.03;;;2.40;99.90;;;;;;5026208;28;20199;-67
2023/12/08 06:11:08;;;;;;;23.70;15.70;;;2.40;99.90;;;;;;5038607;28;20246;-67
2023/12/08 06:13:35;;;;;;;24.97;15.57;;;2.40;99.90;;;;;;5046503;28;20294;-67
2023/12/08 06:16:03;;;;;;;24.03;15.67;;;2.40;99.90;;;;;;5040096;28;20197;-67
2023/12/08 06:18:30;;;;;;;22.10;15.07;;;2.40;99.90;;;;;;5026180;28;20229;-67
2023/12/08 06:20:58;;;;;;;24.80;16.10;;;2.40;99.90;;;;;;5035085;28;20298;-67
2023/12/08 06:23:24;;;;;;;27.60;17.50;;;2.40;99.90;;;;;;5046260;28;20806;-67
2023/12/08 06:25:53;;;;;;;27.27;17.30;;;2.40;99.90;;;;;;5045902;28;20292;-67
2023/12/08 06:28:20;;;;;;;24.90;15.80;;;2.40;99.90;;;;;;5046128;28;20238;-67
2023/12/08 06:30:47;;;;;;;25.43;15.87;;;2.40;99.90;;;;;;5043436;28;20630;-67
2023/12/08 06:33:14;;;;;;;24.50;16.20;;;2.40;99.90;;;;;;5028299;28;20209;-67
2023/12/08 06:35:41;;;;;;;25.70;16.20;;;2.40;99.90;;;;;;5029606;28;20209;-67
2023/12/08 06:38:07;;;;;;;22.80;15.60;;;2.40;99.90;;;;;;5029448;28;20536;-67
2023/12/08 06:40:34;;;;;;;22.83;16.17;;;2.40;99.90;;;;;;5037083;28;20303;-67
2023/12/08 06:43:03;;;;;;;23.57;15.87;;;2.40;99.90;;;;;;5048967;28;20287;-67
2023/12/08 06:45:30;;;;;;;23.63;15.40;;;2.40;99.90;;;;;;5049709;28;20219;-67
2023/12/08 06:47:56;;;;;;;22.27;15.30;;;2.40;99.90;;;;;;5029431;28;20244;-67
2023/12/08 06:50:23;;;;;;;26.23;16.73;;;2.40;99.90;;;;;;5029202;28;20308;-67
2023/12/08 06:52:51;;;;;;;24.00;15.87;;;2.40;99.90;;;;;;5029276;28;20312;-67
2023/12/08 06:55:18;;;;;;;26.23;16.03;;;2.40;99.90;;;;;;5029400;28;20223;-67
2023/12/08 06:57:45;;;;;;;25.27;15.73;;;2.40;99.90;;;;;;5029270;28;20224;-67
2023/12/08 07:00:16;;;;;;;24.83;16.47;;;2.40;99.90;;;;;;5032057;28;20317;-67
2023/12/08 07:02:44;;;;;;;25.17;15.20;;;2.30;99.90;;;;;;5047666;28;20194;-67
2023/12/08 07:05:11;;;;;;;20.13;14.63;;;2.40;99.90;;;;;;5048725;28;20235;-67
2023/12/08 07:07:38;;;;;;;23.67;15.87;;;2.30;99.90;;;;;;5048610;28;20335;-67
2023/12/08 07:10:06;;;;;;;22.63;15.70;;;2.30;99.90;;;;;;5045128;28;20226;-67
2023/12/08 07:12:33;;;;;;;22.70;15.53;;;2.30;99.90;;;;;;5028005;28;20308;-67
2023/12/08 07:15:00;;;;;;;24.20;16.10;;;2.30;99.90;;;;;;5028990;28;20282;-66
2023/12/08 07:17:28;;;;;;;23.33;16.30;;;2.30;99.90;;;;;;5039756;28;20303;-67
2023/12/08 07:19:55;;;;;;;26.30;16.10;;;2.30;99.90;;;;;;5048073;28;20319;-67
2023/12/08 07:22:22;;;;;;;25.33;16.07;;;2.30;99.90;;;;;;5048734;28;20210;-67
2023/12/08 07:24:48;;;;;;;27.43;16.93;;;2.30;99.90;;;;;;5048258;28;20251;-67
2023/12/08 07:27:15;;;;;;;23.63;16.37;;;2.30;99.90;;;;;;5048390;28;20651;-67
2023/12/08 07:29:42;;;;;;;22.30;15.40;;;2.30;99.90;;;;;;5048229;28;20295;-67
2023/12/08 07:32:10;;;;;;;22.50;15.83;;;2.30;99.90;;;;;;5048032;28;20215;-67
2023/12/08 07:34:38;;;;;;;22.30;15.53;;;2.30;99.90;;;;;;5048001;28;20302;-67
2023/12/08 07:37:05;;;;;;;23.70;15.63;;;2.30;99.90;;;;;;5031812;28;20578;-67
2023/12/08 07:39:32;;;;;;;22.37;14.87;;;2.30;99.90;;;;;;5026423;28;20236;-67
2023/12/08 07:41:59;;;;;;;21.43;15.27;;;2.30;99.90;;;;;;5044866;28;20215;-67
2023/12/08 07:44:26;;;;;;;23.70;15.57;;;2.30;99.90;;;;;;5043305;28;20208;-67
2023/12/08 07:46:53;;;;;;;20.73;14.43;;;2.30;99.90;;;;;;5031617;28;20232;-67
2023/12/08 07:49:20;;;;;;;21.47;15.20;;;2.30;99.90;;;;;;5036323;28;20205;-67
2023/12/08 07:51:48;;;;;;;22.87;15.50;;;2.30;99.90;;;;;;5033735;28;20205;-67
2023/12/08 07:54:15;;;;;;;22.77;15.37;;;2.30;99.90;;;;;;5042183;28;20291;-67
2023/12/08 07:56:42;;;;;;;23.20;15.43;;;2.30;99.90;;;;;;5045874;28;20302;-67
2023/12/08 07:59:09;;;;;;;20.67;14.83;;;2.30;99.90;;;;;;5044365;28;20325;-67
2023/12/08 08:01:36;;;;;;;19.90;15.20;;;2.30;99.90;;;;;;5045948;28;20673;-67
2023/12/08 08:04:03;;;;;;;22.67;15.37;;;2.30;99.90;;;;;;5045969;28;20219;-67
2023/12/08 08:06:30;;;;;;;23.10;15.63;;;2.40;99.90;;;;;;5045861;28;20326;-67
2023/12/08 08:08:58;;;;;;;22.83;15.43;;;2.40;99.90;;;;;;5045472;28;20240;-67
2023/12/08 08:11:25;;;;;;;22.97;15.23;;;2.40;99.90;;;;;;5031310;28;20291;-67
2023/12/08 08:13:52;;;;;;;19.30;14.47;;;2.50;99.90;;;;;;5038244;28;20208;-67
2023/12/08 08:16:19;;;;;;;21.50;14.53;;;2.40;99.90;;;;;;5028817;28;20335;-67
2023/12/08 08:18:46;;;;;;;21.03;14.40;;;2.50;99.90;;;;;;5025492;28;20331;-67
2023/12/08 08:21:13;;;;;;;21.20;15.17;;;2.50;99.90;;;;;;5025302;28;20675;-67
2023/12/08 08:23:41;;;;;;;18.47;13.37;;;2.50;99.90;;;;;;5026712;28;20205;-67
2023/12/08 08:26:09;;;;;;;18.87;13.57;;;2.50;99.90;;;;;;5044054;28;20203;-67
2023/12/08 08:28:36;;;;;;;18.40;13.37;;;2.50;99.90;;;;;;5046145;28;20327;-67
2023/12/08 08:31:04;;;;;;;17.63;13.23;;;2.60;99.90;;;;;;5045097;28;20230;-68
2023/12/08 08:33:31;;;;;;;18.30;13.33;;;2.60;99.90;;;;;;5043725;28;20676;-66
2023/12/08 08:35:57;;;;;;;18.43;13.33;;;2.60;99.90;;;;;;5044843;28;20261;-68
2023/12/08 08:38:24;;;;;;;19.63;13.53;;;2.50;99.90;;;;;;5044792;28;20721;-67
2023/12/08 08:40:51;;;;;;;18.73;13.20;;;2.60;99.90;;;;;;5044490;28;20273;-67
2023/12/08 08:43:20;;;;;;;18.30;12.87;;;2.50;99.90;;;;;;5044433;28;20207;-67
2023/12/08 08:45:46;;;;;;;19.30;13.27;;;2.50;99.90;;;;;;5044782;28;20691;-67
2023/12/08 08:48:13;;;;;;;19.70;13.60;;;2.50;99.90;;;;;;5030858;28;20201;-67
2023/12/08 08:50:40;;;;;;;19.03;12.97;;;2.50;99.90;;;;;;5044057;28;20306;-66
2023/12/08 08:53:07;;;;;;;18.30;13.37;;;2.60;99.90;;;;;;5045361;28;20212;-66
2023/12/08 08:55:34;;;;;;;16.57;12.73;;;2.60;99.90;;;;;;5044912;28;20206;-65
2023/12/08 08:58:01;;;;;;;16.93;12.60;;;2.60;99.90;;;;;;5044176;28;20294;-66
2023/12/08 09:00:29;;;;;;;18.63;13.73;;;2.60;99.90;;;;;;5042980;28;20269;-66
2023/12/08 09:02:57;;;;;;;17.57;12.63;;;2.60;99.90;;;;;;5043940;28;20210;-66
2023/12/08 09:05:24;;;;;;;18.47;13.40;;;2.60;99.90;;;;;;5043830;28;20670;-66
2023/12/08 09:07:51;;;;;;;17.37;12.43;;;2.70;99.90;;;;;;5044114;28;20856;-66
2023/12/08 09:10:18;;;;;;;16.67;12.50;;;2.70;99.90;;;;;;5036112;28;20220;-66
2023/12/08 09:12:45;;;;;;;16.93;12.93;;;2.70;99.90;;;;;;5044830;28;20761;-66
2023/12/08 09:15:13;;;;;;;17.27;12.57;;;2.70;99.90;;;;;;5045892;28;20303;-66
2023/12/08 09:17:42;;;;;;;16.90;12.63;;;2.70;99.90;;;;;;5032921;28;20675;-66
2023/12/08 09:20:14;;;;;;;17.13;12.97;;;2.70;99.90;;;;;;5027982;28;20585;-66
2023/12/08 09:22:41;;;;;;;14.40;11.80;;;2.80;99.90;;;;;;5046066;28;20242;-66
2023/12/08 09:25:09;;;;;;;16.23;12.20;;;2.80;99.90;;;;;;5045914;28;20240;-66
2023/12/08 09:27:36;;;;;;;17.77;12.63;;;2.80;99.90;;;;;;5046030;28;20262;-66
2023/12/08 09:30:03;;;;;;;14.80;12.40;;;2.80;99.90;;;;;;5045853;28;20291;-66
2023/12/08 09:32:30;;;;;;;14.33;11.53;;;2.80;99.90;;;;;;5045847;28;20740;-66
2023/12/08 09:34:58;;;;;;;15.90;11.20;;;2.80;99.90;;;;;;5044812;28;20220;-66
2023/12/08 09:37:25;;;;;;;14.20;11.73;;;2.80;99.90;;;;;;5045972;28;20227;-66
2023/12/08 09:39:52;;;;;;;15.30;11.93;;;2.80;99.90;;;;;;5045791;28;20325;-66
2023/12/08 09:42:27;;;;;;;14.97;10.40;;;2.80;99.90;;;;;;5045867;28;20243;-66
2023/12/08 09:44:55;;;;;;;13.27;10.80;;;2.80;99.90;;;;;;5025784;28;20280;-66
2023/12/08 09:47:23;;;;;;;14.93;11.43;;;2.80;99.90;;;;;;5026008;28;20251;-66
2023/12/08 09:49:52;;;;;;;15.77;11.63;;;2.80;99.90;;;;;;5025348;28;20952;-66
2023/12/08 09:52:21;;;;;;;14.47;11.03;;;2.80;99.90;;;;;;5025897;28;20219;-66
2023/12/08 09:54:48;;;;;;;14.33;11.23;;;2.80;99.90;;;;;;5025927;28;20207;-66
2023/12/08 09:57:16;;;;;;;15.13;11.50;;;2.80;99.90;;;;;;5025634;28;20345;-66
2023/12/08 09:59:46;;;;;;;13.93;11.10;;;2.80;99.90;;;;;;5025634;28;20229;-66
2023/12/08 10:02:13;;;;;;;14.13;10.80;;;2.80;99.90;;;;;;5025485;28;20304;-66
2023/12/08 10:04:41;;;;;;;13.80;10.80;;;2.80;99.90;;;;;;5024919;28;20828;-66
2023/12/08 10:07:10;;;;;;;13.77;10.60;;;2.80;99.90;;;;;;5044145;28;20793;-66
2023/12/08 10:09:41;;;;;;;14.33;11.23;;;2.80;99.90;;;;;;5049802;28;20220;-66
2023/12/08 10:12:08;;;;;;;15.23;11.57;;;2.80;99.90;;;;;;5029301;28;20699;-66
2023/12/08 10:14:35;;;;;;;13.97;11.17;;;2.80;99.90;;;;;;5047271;28;20211;-66
2023/12/08 10:17:02;;;;;;;14.97;11.47;;;2.80;99.90;;;;;;5049071;28;20575;-66
2023/12/08 10:19:29;;;;;;;14.37;11.13;;;2.80;99.90;;;;;;5048805;28;20240;-66
2023/12/08 10:22:00;;;;;;;15.73;11.13;;;2.70;99.90;;;;;;5049251;28;20290;-66
2023/12/08 10:24:29;;;;;;;14.43;10.83;;;2.80;99.90;;;;;;5048717;28;20223;-66
2023/12/08 10:26:58;;;;;;;14.83;11.40;;;2.80;99.90;;;;;;5048879;28;20208;-66
2023/12/08 10:29:29;;;;;;;16.47;11.63;;;2.90;99.90;;;;;;5049274;28;20215;-66
2023/12/08 10:31:57;;;;;;;12.60;10.50;;;2.80;99.90;;;;;;5048774;28;20283;-66
2023/12/08 10:34:24;;;;;;;14.67;11.00;;;2.80;99.90;;;;;;5048704;28;20299;-66
2023/12/08 10:36:53;;;;;;;14.13;11.13;;;2.80;99.90;;;;;;5048736;28;20251;-66
2023/12/08 10:39:19;;;;;;;13.70;10.97;;;2.80;99.90;;;;;;5048699;28;20236;-66
2023/12/08 10:41:49;;;;;;;15.03;11.03;;;2.80;99.90;;;;;;5048493;28;20299;-66
2023/12/08 10:44:19;;;;;;;15.43;11.37;;;2.80;99.90;;;;;;5048404;28;20287;-66
2023/12/08 10:46:48;;;;;;;14.60;10.80;;;2.80;99.90;;;;;;5048495;28;20709;-66
2023/12/08 10:49:17;;;;;;;15.90;11.83;;;2.80;99.90;;;;;;5036723;28;20514;-66
2023/12/08 10:51:46;;;;;;;13.67;11.43;;;2.80;99.90;;;;;;5027106;28;20232;-66
2023/12/08 10:54:16;;;;;;;17.97;11.67;;;2.80;99.90;;;;;;5028266;28;20292;-66
2023/12/08 10:56:43;;;;;;;15.17;11.30;;;2.80;99.90;;;;;;5028147;28;20217;-66
2023/12/08 10:59:11;;;;;;;13.77;11.13;;;2.80;99.90;;;;;;5028186;28;20782;-66
2023/12/08 11:01:41;;;;;;;13.30;10.80;;;2.80;99.90;;;;;;5032454;28;20692;-66
2023/12/08 11:04:11;;;;;;;14.37;11.23;;;2.70;99.90;;;;;;5048248;28;20291;-66
2023/12/08 11:06:47;;;;;;;14.60;11.03;;;2.70;99.90;;;;;;5047595;28;20248;-66
2023/12/08 11:09:17;;;;;;;15.13;10.10;;;2.80;99.90;;;;;;5048069;28;20207;-66
2023/12/08 11:11:56;;;;;;;14.03;11.03;;;2.70;99.90;;;;;;5047930;28;20215;-66
2023/12/08 11:14:33;;;;;;;13.47;10.47;;;2.70;99.90;;;;;;5048188;28;20202;-66
2023/12/08 11:17:04;;;;;;;14.13;10.90;;;2.70;99.90;;;;;;5047817;28;20200;-66
2023/12/08 11:19:32;;;;;;;14.50;11.33;;;2.60;99.90;;;;;;5046961;28;20215;-66
2023/12/08 11:22:00;;;;;;;13.43;11.17;;;2.60;99.90;;;;;;5048198;28;20235;-66
2023/12/08 11:24:28;;;;;;;12.93;10.63;;;2.60;99.90;;;;;;5048327;28;20238;-66
2023/12/08 11:27:05;;;;;;;13.80;10.33;;;2.60;99.90;;;;;;5047771;28;20250;-66
2023/12/08 11:29:41;;;;;;;14.83;11.07;;;2.60;99.90;;;;;;5047832;28;20285;-66
2023/12/08 11:32:19;;;;;;;14.10;10.37;;;2.60;99.90;;;;;;5047472;28;20196;-66
2023/12/08 11:34:54;;;;;;;12.30;10.27;;;2.60;99.90;;;;;;5047319;28;20196;-66
2023/12/08 11:37:22;;;;;;;12.90;10.73;;;2.60;99.90;;;;;;5048000;28;20196;-66
2023/12/08 11:39:49;;;;;;;12.13;10.30;;;2.60;99.90;;;;;;5047354;28;20765;-66
2023/12/08 11:42:18;;;;;;;12.33;10.27;;;2.60;99.90;;;;;;5047424;28;20733;-66
2023/12/08 11:44:46;;;;;;;13.93;10.27;;;2.60;99.90;;;;;;5047117;28;20261;-66
2023/12/08 11:47:15;;;;;;;13.00;10.20;;;2.60;99.90;;;;;;5047524;28;20254;-66
2023/12/08 11:49:43;;;;;;;13.23;10.10;;;2.60;99.90;;;;;;5047210;28;20256;-66
2023/12/08 11:52:15;;;;;;;13.57;10.13;;;2.60;99.90;;;;;;5046999;28;20861;-66
2023/12/08 11:54:58;;;;;;;13.30;10.63;;;2.60;99.90;;;;;;5047155;28;20300;-66
2023/12/08 11:57:25;;;;;;;12.07;9.87;;;2.60;99.90;;;;;;5046988;28;20201;-66
2023/12/08 11:59:52;;;;;;;12.17;9.97;;;2.60;99.90;;;;;;5047030;28;20347;-66
2023/12/08 12:02:21;;;;;;;13.73;10.60;;;2.60;99.90;;;;;;5047268;28;20204;-66
2023/12/08 12:04:49;;;;;;;11.70;9.63;;;2.60;99.90;;;;;;5046728;28;20319;-66
2023/12/08 12:07:19;;;;;;;12.10;9.43;;;2.60;99.90;;;;;;5046693;28;20321;-66
2023/12/08 12:09:49;;;;;;;12.20;10.13;;;2.60;99.90;;;;;;5047038;28;20200;-66
2023/12/08 12:12:24;;;;;;;11.93;9.77;;;2.60;99.90;;;;;;5047455;28;20208;-66
2023/12/08 12:14:55;;;;;;;13.23;10.33;;;2.60;99.90;;;;;;5046795;28;20375;-66
2023/12/08 12:17:24;;;;;;;13.23;9.90;;;2.60;99.90;;;;;;5046557;28;20420;-66
2023/12/08 12:19:52;;;;;;;13.03;10.13;;;2.60;99.90;;;;;;5046258;28;20713;-66
2023/12/08 12:22:19;;;;;;;10.97;9.77;;;2.60;99.90;;;;;;5046675;28;20197;-66
2023/12/08 12:24:46;;;;;;;11.43;9.73;;;2.60;99.90;;;;;;5046723;28;20285;-66
2023/12/08 12:27:13;;;;;;;14.03;9.73;;;2.60;99.90;;;;;;5046121;28;20262;-66
2023/12/08 12:29:40;;;;;;;11.63;9.83;;;2.60;99.90;;;;;;5045795;28;20244;-66
2023/12/08 12:32:08;;;;;;;12.17;10.07;;;2.70;99.90;;;;;;5046083;28;20904;-66
2023/12/08 12:34:37;;;;;;;13.10;10.13;;;2.60;99.90;;;;;;5046521;28;20204;-66
2023/12/08 12:37:05;;;;;;;12.07;9.77;;;2.70;99.90;;;;;;5046526;28;20231;-66
2023/12/08 12:39:32;;;;;;;12.90;10.17;;;2.70;99.90;;;;;;5046456;28;20299;-66
2023/12/08 12:41:59;;;;;;;14.57;10.53;;;2.70;99.90;;;;;;5046114;28;20212;-66
2023/12/08 12:44:40;;;;;;;12.67;10.67;;;2.70;99.90;;;;;;5046345;28;20243;-66